createdAt,value
2018-06-29T00:00:25.550Z,0.00
2018-06-29T00:01:32.111Z,0.00
2018-06-29T00:02:39.648Z,0.00
2018-06-29T00:03:45.190Z,0.00
2018-06-29T00:04:51.744Z,0.00
2018-06-29T00:05:58.303Z,0.00
2018-06-29T00:07:04.835Z,0.00
2018-06-29T00:08:11.379Z,0.00
2018-06-29T00:09:17.929Z,0.00
2018-06-29T00:10:24.478Z,0.00
2018-06-29T00:11:31.037Z,0.00
2018-06-29T00:12:37.577Z,0.00
2018-06-29T00:13:44.128Z,0.00
2018-06-29T00:14:50.672Z,0.00
2018-06-29T00:15:57.219Z,0.00
2018-06-29T00:17:03.781Z,0.00
2018-06-29T00:18:10.324Z,0.00
2018-06-29T00:19:16.874Z,0.00
2018-06-29T00:20:23.414Z,0.00
2018-06-29T00:21:29.984Z,0.00
2018-06-29T00:22:36.521Z,0.00
2018-06-29T00:23:43.073Z,0.00
2018-06-29T00:24:49.613Z,0.00
2018-06-29T00:25:56.163Z,0.00
2018-06-29T00:27:02.724Z,0.00
2018-06-29T00:28:09.264Z,0.00
2018-06-29T00:29:15.905Z,0.00
2018-06-29T00:30:22.360Z,0.00
2018-06-29T00:31:28.922Z,0.00
2018-06-29T00:32:35.474Z,0.00
2018-06-29T00:33:42.020Z,0.00
2018-06-29T00:34:48.557Z,0.00
2018-06-29T00:35:55.110Z,0.00
2018-06-29T00:37:01.660Z,0.00
2018-06-29T00:38:08.218Z,0.00
2018-06-29T00:39:14.755Z,0.00
2018-06-29T00:40:21.306Z,0.00
2018-06-29T00:41:27.846Z,0.00
2018-06-29T00:42:34.409Z,0.00
2018-06-29T00:43:40.962Z,0.00
2018-06-29T00:44:47.644Z,0.00
2018-06-29T00:45:54.057Z,0.00
2018-06-29T00:47:00.605Z,0.00
2018-06-29T00:48:07.154Z,0.00
2018-06-29T00:49:13.707Z,0.00
2018-06-29T00:50:20.246Z,0.00
2018-06-29T00:51:26.792Z,0.00
2018-06-29T00:52:33.353Z,0.00
2018-06-29T00:53:39.907Z,0.00
2018-06-29T00:54:46.441Z,0.00
2018-06-29T00:55:52.990Z,0.00
2018-06-29T00:56:59.534Z,0.00
2018-06-29T00:58:06.093Z,0.00
2018-06-29T00:59:12.640Z,0.00
2018-06-29T01:00:19.177Z,0.00
2018-06-29T01:01:25.732Z,0.00
2018-06-29T01:02:32.277Z,0.00
2018-06-29T01:03:38.816Z,0.00
2018-06-29T01:04:45.366Z,0.00
2018-06-29T01:05:51.915Z,0.00
2018-06-29T01:06:58.475Z,0.00
2018-06-29T01:08:05.033Z,0.00
2018-06-29T01:09:11.572Z,0.00
2018-06-29T01:10:18.112Z,0.00
2018-06-29T01:11:24.670Z,0.00
2018-06-29T01:12:31.214Z,0.00
2018-06-29T01:13:37.755Z,0.00
2018-06-29T01:14:44.302Z,0.00
2018-06-29T01:15:50.860Z,0.00
2018-06-29T01:16:57.409Z,0.00
2018-06-29T01:18:03.961Z,0.00
2018-06-29T01:19:10.507Z,0.00
2018-06-29T01:20:17.044Z,0.00
2018-06-29T01:21:23.591Z,0.00
2018-06-29T01:22:30.138Z,0.00
2018-06-29T01:23:36.691Z,0.00
2018-06-29T01:24:43.243Z,0.00
2018-06-29T01:25:49.782Z,0.00
2018-06-29T01:26:56.342Z,0.00
2018-06-29T01:28:02.888Z,0.00
2018-06-29T01:29:09.449Z,0.00
2018-06-29T01:30:15.981Z,0.00
2018-06-29T01:31:22.524Z,0.00
2018-06-29T01:32:29.071Z,0.00
2018-06-29T01:33:35.625Z,0.00
2018-06-29T01:34:43.168Z,0.00
2018-06-29T01:35:48.707Z,0.00
2018-06-29T01:36:55.264Z,0.00
2018-06-29T01:38:01.893Z,0.00
2018-06-29T01:39:08.351Z,0.00
2018-06-29T01:40:14.905Z,0.00
2018-06-29T01:41:21.491Z,0.00
2018-06-29T01:42:27.977Z,0.00
2018-06-29T01:43:34.712Z,0.00
2018-06-29T01:44:41.066Z,0.00
2018-06-29T01:45:47.599Z,0.00
2018-06-29T01:46:54.143Z,0.00
2018-06-29T01:48:00.690Z,0.00
2018-06-29T01:49:07.247Z,0.00
2018-06-29T01:50:13.767Z,0.00
2018-06-29T01:51:20.302Z,0.00
2018-06-29T01:52:27.150Z,0.00
2018-06-29T01:53:33.387Z,0.00
2018-06-29T01:54:39.922Z,0.00
2018-06-29T01:55:46.459Z,0.00
2018-06-29T01:56:52.996Z,0.00
2018-06-29T01:57:59.546Z,0.00
2018-06-29T01:59:06.069Z,0.00
2018-06-29T02:00:12.610Z,0.00
2018-06-29T02:01:19.133Z,0.00
2018-06-29T02:02:25.672Z,0.00
2018-06-29T02:03:32.209Z,0.00
2018-06-29T02:04:38.749Z,0.00
2018-06-29T02:05:45.567Z,0.00
2018-06-29T02:06:51.802Z,0.00
2018-06-29T02:07:58.373Z,0.00
2018-06-29T02:09:04.869Z,0.00
2018-06-29T02:10:11.389Z,0.00
2018-06-29T02:11:17.916Z,0.00
2018-06-29T02:12:24.436Z,0.00
2018-06-29T02:13:31.964Z,0.00
2018-06-29T02:14:37.506Z,0.00
2018-06-29T02:15:44.035Z,0.00
2018-06-29T02:16:50.568Z,0.00
2018-06-29T02:17:57.093Z,0.00
2018-06-29T02:19:03.623Z,0.00
2018-06-29T02:20:10.153Z,0.00
2018-06-29T02:21:16.677Z,0.00
2018-06-29T02:22:23.205Z,0.00
2018-06-29T02:23:29.749Z,0.00
2018-06-29T02:24:36.278Z,0.00
2018-06-29T02:25:42.895Z,0.00
2018-06-29T02:26:49.326Z,0.00
2018-06-29T02:27:55.856Z,0.00
2018-06-29T02:29:02.387Z,0.00
2018-06-29T02:30:08.906Z,0.00
2018-06-29T02:31:15.442Z,0.00
2018-06-29T02:32:21.951Z,0.00
2018-06-29T02:33:28.477Z,0.00
2018-06-29T02:34:36.013Z,0.00
2018-06-29T02:35:41.537Z,0.00
2018-06-29T02:36:48.054Z,0.00
2018-06-29T02:37:54.577Z,0.00
2018-06-29T02:39:01.121Z,0.00
2018-06-29T02:40:07.632Z,0.00
2018-06-29T02:41:14.158Z,0.00
2018-06-29T02:42:20.658Z,0.00
2018-06-29T02:43:27.192Z,0.00
2018-06-29T02:44:33.702Z,0.00
2018-06-29T02:45:40.232Z,0.00
2018-06-29T02:46:46.756Z,0.00
2018-06-29T02:47:53.257Z,0.00
2018-06-29T02:48:59.779Z,0.00
2018-06-29T02:50:07.294Z,0.00
2018-06-29T02:51:12.911Z,0.00
2018-06-29T02:52:19.328Z,0.00
2018-06-29T02:53:25.843Z,0.00
2018-06-29T02:54:32.365Z,0.00
2018-06-29T02:55:38.893Z,0.00
2018-06-29T02:56:45.386Z,0.00
2018-06-29T02:57:51.903Z,0.00
2018-06-29T02:58:58.406Z,0.00
2018-06-29T03:00:04.909Z,0.00
2018-06-29T03:01:11.437Z,0.00
2018-06-29T03:02:17.930Z,0.00
2018-06-29T03:03:24.454Z,0.00
2018-06-29T03:04:30.959Z,0.00
2018-06-29T03:05:37.483Z,0.00
2018-06-29T03:06:44.003Z,0.00
2018-06-29T03:07:50.509Z,0.00
2018-06-29T03:08:57.020Z,0.00
2018-06-29T03:10:03.526Z,0.00
2018-06-29T03:11:10.049Z,0.00
2018-06-29T03:12:16.547Z,0.00
2018-06-29T03:13:23.059Z,0.00
2018-06-29T03:14:29.585Z,0.00
2018-06-29T03:15:36.092Z,0.00
2018-06-29T03:16:42.614Z,0.00
2018-06-29T03:17:49.119Z,0.00
2018-06-29T03:18:55.624Z,0.00
2018-06-29T03:20:02.140Z,0.00
2018-06-29T03:21:08.657Z,0.00
2018-06-29T03:22:15.649Z,0.00
2018-06-29T03:23:21.664Z,0.00
2018-06-29T03:24:28.185Z,5.63
2018-06-29T03:25:34.698Z,5.63
2018-06-29T03:26:41.206Z,5.63
2018-06-29T03:27:47.707Z,5.63
2018-06-29T03:28:54.224Z,5.63
2018-06-29T03:30:00.735Z,5.63
2018-06-29T03:31:07.260Z,5.63
2018-06-29T03:32:13.759Z,5.63
2018-06-29T03:33:20.281Z,5.63
2018-06-29T03:34:26.886Z,5.63
2018-06-29T03:35:33.303Z,5.63
2018-06-29T03:36:39.832Z,5.63
2018-06-29T03:37:46.333Z,5.63
2018-06-29T03:38:52.849Z,5.63
2018-06-29T03:39:59.356Z,5.63
2018-06-29T03:41:06.385Z,5.63
2018-06-29T03:42:12.398Z,5.63
2018-06-29T03:43:18.910Z,5.63
2018-06-29T03:44:25.416Z,5.63
2018-06-29T03:45:31.928Z,5.63
2018-06-29T03:46:38.456Z,11.25
2018-06-29T03:47:45.463Z,11.25
2018-06-29T03:48:51.674Z,11.25
2018-06-29T03:49:58.008Z,11.25
2018-06-29T03:51:04.506Z,11.25
2018-06-29T03:52:11.035Z,11.25
2018-06-29T03:53:17.534Z,11.25
2018-06-29T03:54:24.059Z,16.88
2018-06-29T03:55:30.568Z,16.88
2018-06-29T03:56:37.101Z,16.88
2018-06-29T03:57:43.614Z,16.88
2018-06-29T03:58:50.127Z,16.88
2018-06-29T03:59:56.635Z,22.50
2018-06-29T04:01:03.153Z,22.50
2018-06-29T04:02:09.685Z,22.50
2018-06-29T04:03:16.244Z,22.50
2018-06-29T04:04:22.725Z,22.50
2018-06-29T04:05:29.232Z,22.50
2018-06-29T04:06:35.755Z,22.50
2018-06-29T04:07:42.284Z,22.50
2018-06-29T04:08:48.890Z,28.13
2018-06-29T04:09:55.322Z,28.13
2018-06-29T04:11:01.831Z,28.13
2018-06-29T04:12:08.363Z,28.13
2018-06-29T04:13:15.372Z,28.13
2018-06-29T04:14:21.394Z,28.13
2018-06-29T04:15:27.921Z,28.13
2018-06-29T04:16:34.454Z,28.13
2018-06-29T04:17:40.970Z,33.75
2018-06-29T04:18:47.485Z,33.75
2018-06-29T04:19:54.007Z,33.75
2018-06-29T04:21:00.521Z,33.75
2018-06-29T04:22:07.042Z,39.38
2018-06-29T04:23:13.574Z,39.38
2018-06-29T04:24:20.092Z,39.38
2018-06-29T04:25:26.611Z,39.38
2018-06-29T04:26:33.200Z,39.38
2018-06-29T04:27:39.660Z,39.38
2018-06-29T04:28:46.189Z,39.38
2018-06-29T04:29:53.194Z,45.00
2018-06-29T04:30:59.224Z,50.63
2018-06-29T04:32:05.746Z,56.25
2018-06-29T04:33:12.280Z,67.50
2018-06-29T04:34:18.884Z,73.13
2018-06-29T04:35:25.326Z,84.38
2018-06-29T04:36:31.863Z,90.00
2018-06-29T04:37:38.382Z,101.25
2018-06-29T04:38:44.926Z,112.50
2018-06-29T04:39:51.447Z,129.38
2018-06-29T04:40:57.995Z,135.00
2018-06-29T04:42:04.530Z,157.50
2018-06-29T04:43:11.068Z,157.50
2018-06-29T04:44:17.610Z,163.13
2018-06-29T04:45:24.146Z,163.13
2018-06-29T04:46:30.708Z,168.75
2018-06-29T04:47:37.249Z,174.38
2018-06-29T04:48:43.821Z,174.38
2018-06-29T04:49:50.354Z,163.13
2018-06-29T04:50:56.908Z,151.88
2018-06-29T04:52:03.485Z,146.25
2018-06-29T04:53:10.023Z,140.63
2018-06-29T04:54:16.591Z,140.63
2018-06-29T04:55:23.134Z,151.88
2018-06-29T04:56:29.693Z,157.50
2018-06-29T04:57:36.257Z,168.75
2018-06-29T04:58:42.837Z,180.00
2018-06-29T04:59:49.372Z,196.88
2018-06-29T05:00:55.978Z,213.75
2018-06-29T05:02:02.512Z,219.38
2018-06-29T05:03:09.062Z,225.00
2018-06-29T05:04:15.636Z,219.38
2018-06-29T05:05:22.192Z,219.38
2018-06-29T05:06:28.769Z,213.75
2018-06-29T05:07:35.337Z,213.75
2018-06-29T05:08:41.910Z,213.75
2018-06-29T05:09:48.487Z,213.75
2018-06-29T05:10:55.045Z,225.00
2018-06-29T05:12:01.625Z,225.00
2018-06-29T05:13:08.196Z,236.25
2018-06-29T05:14:14.898Z,241.88
2018-06-29T05:15:21.339Z,253.13
2018-06-29T05:16:27.917Z,270.00
2018-06-29T05:17:34.507Z,286.88
2018-06-29T05:18:41.088Z,303.75
2018-06-29T05:19:47.689Z,320.63
2018-06-29T05:20:54.751Z,326.25
2018-06-29T05:22:00.850Z,320.63
2018-06-29T05:23:07.456Z,315.00
2018-06-29T05:24:14.045Z,298.13
2018-06-29T05:25:20.656Z,292.50
2018-06-29T05:26:27.245Z,292.50
2018-06-29T05:27:33.863Z,303.75
2018-06-29T05:28:40.495Z,320.63
2018-06-29T05:29:47.071Z,326.25
2018-06-29T05:30:54.666Z,315.00
2018-06-29T05:32:00.281Z,281.25
2018-06-29T05:33:06.895Z,241.88
2018-06-29T05:34:13.492Z,213.75
2018-06-29T05:35:20.106Z,202.50
2018-06-29T05:36:26.697Z,191.25
2018-06-29T05:37:33.284Z,196.88
2018-06-29T05:38:39.887Z,213.75
2018-06-29T05:39:46.484Z,213.75
2018-06-29T05:40:53.067Z,213.75
2018-06-29T05:41:59.664Z,202.50
2018-06-29T05:43:06.244Z,191.25
2018-06-29T05:44:12.833Z,180.00
2018-06-29T05:45:19.435Z,180.00
2018-06-29T05:46:26.073Z,180.00
2018-06-29T05:47:32.592Z,174.38
2018-06-29T05:48:39.174Z,174.38
2018-06-29T05:49:45.772Z,174.38
2018-06-29T05:50:52.352Z,174.38
2018-06-29T05:51:58.922Z,174.38
2018-06-29T05:53:05.563Z,174.38
2018-06-29T05:54:12.084Z,174.38
2018-06-29T05:55:18.671Z,174.38
2018-06-29T05:56:25.255Z,168.75
2018-06-29T05:57:31.896Z,163.13
2018-06-29T05:58:38.410Z,163.13
2018-06-29T05:59:45.019Z,168.75
2018-06-29T06:00:51.564Z,174.38
2018-06-29T06:01:58.201Z,174.38
2018-06-29T06:03:04.727Z,174.38
2018-06-29T06:04:11.297Z,174.38
2018-06-29T06:05:17.892Z,174.38
2018-06-29T06:06:24.453Z,174.38
2018-06-29T06:07:31.037Z,174.38
2018-06-29T06:08:37.615Z,174.38
2018-06-29T06:09:44.207Z,174.38
2018-06-29T06:10:51.776Z,174.38
2018-06-29T06:11:57.360Z,174.38
2018-06-29T06:13:03.934Z,174.38
2018-06-29T06:14:10.520Z,174.38
2018-06-29T06:15:17.112Z,174.38
2018-06-29T06:16:23.669Z,174.38
2018-06-29T06:17:30.251Z,174.38
2018-06-29T06:18:36.830Z,174.38
2018-06-29T06:19:43.412Z,174.38
2018-06-29T06:20:50.007Z,180.00
2018-06-29T06:21:56.635Z,180.00
2018-06-29T06:23:03.466Z,180.00
2018-06-29T06:24:09.757Z,180.00
2018-06-29T06:25:16.325Z,180.00
2018-06-29T06:26:22.930Z,180.00
2018-06-29T06:27:29.493Z,180.00
2018-06-29T06:28:36.081Z,180.00
2018-06-29T06:29:42.668Z,180.00
2018-06-29T06:30:49.264Z,180.00
2018-06-29T06:31:55.842Z,180.00
2018-06-29T06:33:02.452Z,180.00
2018-06-29T06:34:09.036Z,185.63
2018-06-29T06:35:15.629Z,185.63
2018-06-29T06:36:22.227Z,185.63
2018-06-29T06:37:28.900Z,185.63
2018-06-29T06:38:35.422Z,185.63
2018-06-29T06:39:42.011Z,185.63
2018-06-29T06:40:48.623Z,185.63
2018-06-29T06:41:55.216Z,185.63
2018-06-29T06:43:01.835Z,185.63
2018-06-29T06:44:08.440Z,191.25
2018-06-29T06:45:15.049Z,191.25
2018-06-29T06:46:21.693Z,191.25
2018-06-29T06:47:28.281Z,196.88
2018-06-29T06:48:34.901Z,196.88
2018-06-29T06:49:41.519Z,196.88
2018-06-29T06:50:48.143Z,196.88
2018-06-29T06:51:54.766Z,196.88
2018-06-29T06:53:01.393Z,196.88
2018-06-29T06:54:08.007Z,196.88
2018-06-29T06:55:14.638Z,196.88
2018-06-29T06:56:21.289Z,202.50
2018-06-29T06:57:27.917Z,202.50
2018-06-29T06:58:34.612Z,202.50
2018-06-29T06:59:41.187Z,208.13
2018-06-29T07:00:48.548Z,208.13
2018-06-29T07:01:54.478Z,219.38
2018-06-29T07:03:01.106Z,225.00
2018-06-29T07:04:07.748Z,225.00
2018-06-29T07:05:14.393Z,225.00
2018-06-29T07:06:21.035Z,219.38
2018-06-29T07:07:27.678Z,219.38
2018-06-29T07:08:34.316Z,225.00
2018-06-29T07:09:40.975Z,225.00
2018-06-29T07:10:47.631Z,225.00
2018-06-29T07:11:54.272Z,225.00
2018-06-29T07:13:00.924Z,225.00
2018-06-29T07:14:07.577Z,225.00
2018-06-29T07:15:14.236Z,219.38
2018-06-29T07:16:20.887Z,219.38
2018-06-29T07:17:27.542Z,213.75
2018-06-29T07:18:34.189Z,213.75
2018-06-29T07:19:40.850Z,213.75
2018-06-29T07:20:47.543Z,213.75
2018-06-29T07:21:54.173Z,219.38
2018-06-29T07:23:00.831Z,225.00
2018-06-29T07:24:07.495Z,230.63
2018-06-29T07:25:14.161Z,236.25
2018-06-29T07:26:20.822Z,247.50
2018-06-29T07:27:27.485Z,247.50
2018-06-29T07:28:34.148Z,241.88
2018-06-29T07:29:40.812Z,236.25
2018-06-29T07:30:47.474Z,241.88
2018-06-29T07:31:54.143Z,241.88
2018-06-29T07:33:00.800Z,247.50
2018-06-29T07:34:07.478Z,247.50
2018-06-29T07:35:14.149Z,247.50
2018-06-29T07:36:20.813Z,247.50
2018-06-29T07:37:27.498Z,247.50
2018-06-29T07:38:34.209Z,253.13
2018-06-29T07:39:40.849Z,270.00
2018-06-29T07:40:47.521Z,286.88
2018-06-29T07:41:54.286Z,298.13
2018-06-29T07:43:00.894Z,292.50
2018-06-29T07:44:07.580Z,275.63
2018-06-29T07:45:14.263Z,264.38
2018-06-29T07:46:20.954Z,253.13
2018-06-29T07:47:27.652Z,247.50
2018-06-29T07:48:34.348Z,253.13
2018-06-29T07:49:41.033Z,258.75
2018-06-29T07:50:47.718Z,264.38
2018-06-29T07:51:54.417Z,270.00
2018-06-29T07:53:01.122Z,292.50
2018-06-29T07:54:07.899Z,298.13
2018-06-29T07:55:14.535Z,298.13
2018-06-29T07:56:21.235Z,281.25
2018-06-29T07:57:27.940Z,253.13
2018-06-29T07:58:34.725Z,253.13
2018-06-29T07:59:41.343Z,253.13
2018-06-29T08:00:48.051Z,253.13
2018-06-29T08:01:54.758Z,253.13
2018-06-29T08:03:01.563Z,253.13
2018-06-29T08:04:08.163Z,258.75
2018-06-29T08:05:14.874Z,258.75
2018-06-29T08:06:21.589Z,264.38
2018-06-29T08:07:28.298Z,258.75
2018-06-29T08:08:35.018Z,258.75
2018-06-29T08:09:41.725Z,258.75
2018-06-29T08:10:48.451Z,247.50
2018-06-29T08:11:55.166Z,225.00
2018-06-29T08:13:01.906Z,213.75
2018-06-29T08:14:08.619Z,208.13
2018-06-29T08:15:15.337Z,208.13
2018-06-29T08:16:22.054Z,213.75
2018-06-29T08:17:28.787Z,213.75
2018-06-29T08:18:35.492Z,219.38
2018-06-29T08:19:42.197Z,225.00
2018-06-29T08:20:48.972Z,236.25
2018-06-29T08:21:55.631Z,241.88
2018-06-29T08:23:02.356Z,258.75
2018-06-29T08:24:09.075Z,258.75
2018-06-29T08:25:15.894Z,258.75
2018-06-29T08:26:22.502Z,236.25
2018-06-29T08:27:29.231Z,253.13
2018-06-29T08:28:35.964Z,270.00
2018-06-29T08:29:42.694Z,270.00
2018-06-29T08:30:49.399Z,258.75
2018-06-29T08:31:56.111Z,258.75
2018-06-29T08:33:02.838Z,270.00
2018-06-29T08:34:09.576Z,275.63
2018-06-29T08:35:16.296Z,275.63
2018-06-29T08:36:23.033Z,247.50
2018-06-29T08:37:29.775Z,230.63
2018-06-29T08:38:36.542Z,247.50
2018-06-29T08:39:43.249Z,258.75
2018-06-29T08:40:49.985Z,264.38
2018-06-29T08:41:56.706Z,264.38
2018-06-29T08:43:03.451Z,264.38
2018-06-29T08:44:11.226Z,264.38
2018-06-29T08:45:16.938Z,258.75
2018-06-29T08:46:23.671Z,270.00
2018-06-29T08:47:30.412Z,270.00
2018-06-29T08:48:37.173Z,270.00
2018-06-29T08:49:43.998Z,270.00
2018-06-29T08:50:50.663Z,270.00
2018-06-29T08:51:57.430Z,264.38
2018-06-29T08:53:04.162Z,270.00
2018-06-29T08:54:10.927Z,275.63
2018-06-29T08:55:17.670Z,275.63
2018-06-29T08:56:24.426Z,275.63
2018-06-29T08:57:31.194Z,275.63
2018-06-29T08:58:37.962Z,275.63
2018-06-29T08:59:45.712Z,281.25
2018-06-29T09:00:51.472Z,281.25
2018-06-29T09:01:58.229Z,275.63
2018-06-29T09:03:04.999Z,275.63
2018-06-29T09:04:11.772Z,281.25
2018-06-29T09:05:18.527Z,286.88
2018-06-29T09:06:25.285Z,286.88
2018-06-29T09:07:32.057Z,281.25
2018-06-29T09:08:38.833Z,281.25
2018-06-29T09:09:45.604Z,286.88
2018-06-29T09:10:52.438Z,292.50
2018-06-29T09:11:59.164Z,286.88
2018-06-29T09:13:05.933Z,286.88
2018-06-29T09:14:12.702Z,281.25
2018-06-29T09:15:19.492Z,275.63
2018-06-29T09:16:26.274Z,270.00
2018-06-29T09:17:33.054Z,258.75
2018-06-29T09:18:39.859Z,253.13
2018-06-29T09:19:46.629Z,247.50
2018-06-29T09:20:53.450Z,253.13
2018-06-29T09:22:00.221Z,258.75
2018-06-29T09:23:07.009Z,264.38
2018-06-29T09:24:13.891Z,264.38
2018-06-29T09:25:20.600Z,258.75
2018-06-29T09:26:27.362Z,264.38
2018-06-29T09:27:34.135Z,258.75
2018-06-29T09:28:40.912Z,253.13
2018-06-29T09:29:47.692Z,253.13
2018-06-29T09:30:54.495Z,247.50
2018-06-29T09:32:01.239Z,247.50
2018-06-29T09:33:08.025Z,253.13
2018-06-29T09:34:14.794Z,247.50
2018-06-29T09:35:21.567Z,241.88
2018-06-29T09:36:28.464Z,236.25
2018-06-29T09:37:35.130Z,230.63
2018-06-29T09:38:41.906Z,225.00
2018-06-29T09:39:49.682Z,225.00
2018-06-29T09:40:55.486Z,225.00
2018-06-29T09:42:02.247Z,225.00
2018-06-29T09:43:09.018Z,225.00
2018-06-29T09:44:15.891Z,225.00
2018-06-29T09:45:22.589Z,225.00
2018-06-29T09:46:29.372Z,225.00
2018-06-29T09:47:36.164Z,225.00
2018-06-29T09:48:42.921Z,225.00
2018-06-29T09:49:49.722Z,225.00
2018-06-29T09:50:56.497Z,225.00
2018-06-29T09:52:03.274Z,225.00
2018-06-29T09:53:10.040Z,225.00
2018-06-29T09:54:16.817Z,225.00
2018-06-29T09:55:24.595Z,225.00
2018-06-29T09:56:30.395Z,225.00
2018-06-29T09:57:37.151Z,225.00
2018-06-29T09:58:43.926Z,225.00
2018-06-29T09:59:50.703Z,225.00
2018-06-29T10:00:57.520Z,225.00
2018-06-29T10:02:04.276Z,225.00
2018-06-29T10:03:11.057Z,225.00
2018-06-29T10:04:17.856Z,225.00
2018-06-29T10:05:24.630Z,225.00
2018-06-29T10:06:31.441Z,225.00
2018-06-29T10:07:38.214Z,225.00
2018-06-29T10:08:45.011Z,225.00
2018-06-29T10:09:51.791Z,225.00
2018-06-29T10:10:58.593Z,230.63
2018-06-29T10:12:05.384Z,230.63
2018-06-29T10:13:12.177Z,230.63
2018-06-29T10:14:18.985Z,225.00
2018-06-29T10:15:25.764Z,225.00
2018-06-29T10:16:32.573Z,225.00
2018-06-29T10:17:39.356Z,225.00
2018-06-29T10:18:46.163Z,225.00
2018-06-29T10:19:53.110Z,225.00
2018-06-29T10:20:59.736Z,230.63
2018-06-29T10:22:06.546Z,230.63
2018-06-29T10:23:13.328Z,230.63
2018-06-29T10:24:20.196Z,230.63
2018-06-29T10:25:26.965Z,230.63
2018-06-29T10:26:33.746Z,230.63
2018-06-29T10:27:40.535Z,230.63
2018-06-29T10:28:47.340Z,230.63
2018-06-29T10:29:54.135Z,230.63
2018-06-29T10:31:00.957Z,230.63
2018-06-29T10:32:07.736Z,230.63
2018-06-29T10:33:14.532Z,230.63
2018-06-29T10:34:21.333Z,230.63
2018-06-29T10:35:28.154Z,230.63
2018-06-29T10:36:34.958Z,230.63
2018-06-29T10:37:41.769Z,230.63
2018-06-29T10:38:48.631Z,230.63
2018-06-29T10:39:55.373Z,230.63
2018-06-29T10:41:02.193Z,230.63
2018-06-29T10:42:09.022Z,236.25
2018-06-29T10:43:15.895Z,236.25
2018-06-29T10:44:22.624Z,236.25
2018-06-29T10:45:29.436Z,236.25
2018-06-29T10:46:36.257Z,236.25
2018-06-29T10:47:43.076Z,236.25
2018-06-29T10:48:49.891Z,241.88
2018-06-29T10:49:56.703Z,241.88
2018-06-29T10:51:03.533Z,241.88
2018-06-29T10:52:10.550Z,241.88
2018-06-29T10:53:17.171Z,241.88
2018-06-29T10:54:23.994Z,241.88
2018-06-29T10:55:30.812Z,241.88
2018-06-29T10:56:37.649Z,241.88
2018-06-29T10:57:44.480Z,241.88
2018-06-29T10:58:51.326Z,241.88
2018-06-29T10:59:58.134Z,241.88
2018-06-29T11:01:04.960Z,247.50
2018-06-29T11:02:11.802Z,247.50
2018-06-29T11:03:18.642Z,253.13
2018-06-29T11:04:25.497Z,258.75
2018-06-29T11:05:32.347Z,264.38
2018-06-29T11:06:39.236Z,270.00
2018-06-29T11:07:46.215Z,275.63
2018-06-29T11:08:53.272Z,275.63
2018-06-29T11:10:00.402Z,281.25
2018-06-29T11:11:07.595Z,286.88
2018-06-29T11:12:14.876Z,292.50
2018-06-29T11:13:22.230Z,309.38
2018-06-29T11:14:29.615Z,579.38
2018-06-29T11:15:37.074Z,2176.88
2018-06-29T11:16:44.589Z,2981.25
2018-06-29T11:17:52.125Z,2835.00
2018-06-29T11:18:59.699Z,3150.00
2018-06-29T11:20:07.322Z,3200.63
2018-06-29T11:21:14.964Z,3211.88
2018-06-29T11:22:22.659Z,3256.88
2018-06-29T11:23:30.386Z,3093.75
2018-06-29T11:24:38.120Z,3088.13
2018-06-29T11:25:45.887Z,3155.63
2018-06-29T11:26:53.688Z,3228.75
2018-06-29T11:28:01.525Z,3172.50
2018-06-29T11:29:09.371Z,3138.75
2018-06-29T11:30:17.267Z,3228.75
2018-06-29T11:31:25.119Z,3211.88
2018-06-29T11:32:33.033Z,3228.75
2018-06-29T11:33:40.966Z,3217.50
2018-06-29T11:34:48.893Z,3166.88
2018-06-29T11:35:57.023Z,3256.88
2018-06-29T11:37:04.887Z,3268.13
2018-06-29T11:38:12.773Z,3217.50
2018-06-29T11:39:20.740Z,3285.00
2018-06-29T11:40:28.729Z,3301.88
2018-06-29T11:41:36.729Z,3234.38
2018-06-29T11:42:44.732Z,3178.13
2018-06-29T11:43:52.748Z,3268.13
2018-06-29T11:45:00.773Z,3245.63
2018-06-29T11:46:08.896Z,3099.38
2018-06-29T11:47:16.903Z,3245.63
2018-06-29T11:48:24.851Z,3504.38
2018-06-29T11:49:33.901Z,3436.88
2018-06-29T11:50:40.978Z,3183.75
2018-06-29T11:51:49.032Z,3296.25
2018-06-29T11:52:57.112Z,3453.75
2018-06-29T11:54:05.221Z,3358.13
2018-06-29T11:55:13.310Z,3380.63
2018-06-29T11:56:21.423Z,3330.00
2018-06-29T11:57:29.556Z,3245.63
2018-06-29T11:58:37.684Z,3335.63
2018-06-29T11:59:45.822Z,3189.38
2018-06-29T12:00:53.963Z,3121.88
2018-06-29T12:02:02.107Z,3251.25
2018-06-29T12:03:10.254Z,3313.13
2018-06-29T12:04:18.417Z,3166.88
2018-06-29T12:05:26.570Z,3093.75
2018-06-29T12:06:34.728Z,3172.50
2018-06-29T12:07:42.887Z,3211.88
2018-06-29T12:08:51.074Z,3076.88
2018-06-29T12:09:59.259Z,3144.38
2018-06-29T12:11:07.456Z,3161.25
2018-06-29T12:12:15.891Z,3088.13
2018-06-29T12:13:23.880Z,3071.25
2018-06-29T12:14:32.107Z,3060.00
2018-06-29T12:15:40.336Z,3031.88
2018-06-29T12:16:48.606Z,3065.63
2018-06-29T12:17:56.815Z,2936.25
2018-06-29T12:19:05.078Z,2818.13
2018-06-29T12:20:13.321Z,2829.38
2018-06-29T12:21:21.578Z,2953.13
2018-06-29T12:22:29.836Z,3026.25
2018-06-29T12:23:38.105Z,2913.75
2018-06-29T12:24:46.385Z,2941.88
2018-06-29T12:25:54.648Z,2930.63
2018-06-29T12:27:02.920Z,2840.63
2018-06-29T12:28:11.188Z,2919.38
2018-06-29T12:29:19.456Z,3015.00
2018-06-29T12:30:27.691Z,2857.50
2018-06-29T12:31:35.952Z,2801.25
2018-06-29T12:32:44.689Z,2925.00
2018-06-29T12:33:52.408Z,2913.75
2018-06-29T12:35:00.649Z,2868.75
2018-06-29T12:36:08.863Z,2857.50
2018-06-29T12:37:17.092Z,2874.38
2018-06-29T12:38:25.294Z,2750.63
2018-06-29T12:39:33.527Z,2767.50
2018-06-29T12:40:41.712Z,2857.50
2018-06-29T12:41:49.923Z,2716.88
2018-06-29T12:42:58.119Z,2632.50
2018-06-29T12:44:06.324Z,2750.63
2018-06-29T12:45:14.508Z,2750.63
2018-06-29T12:46:22.681Z,2683.13
2018-06-29T12:47:30.867Z,2688.75
2018-06-29T12:48:39.042Z,2739.38
2018-06-29T12:49:47.209Z,2716.88
2018-06-29T12:50:55.374Z,2677.50
2018-06-29T12:52:03.535Z,2745.00
2018-06-29T12:53:11.681Z,2784.38
2018-06-29T12:54:19.832Z,2700.00
2018-06-29T12:55:27.985Z,2688.75
2018-06-29T12:56:36.129Z,2784.38
2018-06-29T12:57:44.304Z,2716.88
2018-06-29T12:58:52.387Z,2598.75
2018-06-29T13:00:00.527Z,2666.25
2018-06-29T13:01:08.650Z,2688.75
2018-06-29T13:02:16.807Z,2610.00
2018-06-29T13:03:24.947Z,2581.88
2018-06-29T13:04:33.083Z,2576.25
2018-06-29T13:05:41.303Z,2576.25
2018-06-29T13:06:49.402Z,2503.13
2018-06-29T13:07:57.566Z,2536.88
2018-06-29T13:09:05.742Z,2683.13
2018-06-29T13:10:14.919Z,2655.00
2018-06-29T13:11:22.099Z,2570.63
2018-06-29T13:12:30.245Z,2649.38
2018-06-29T13:13:38.395Z,2632.50
2018-06-29T13:14:46.535Z,2508.75
2018-06-29T13:15:54.686Z,2565.00
2018-06-29T13:17:02.891Z,2604.38
2018-06-29T13:18:10.942Z,2525.63
2018-06-29T13:19:19.058Z,2548.13
2018-06-29T13:20:27.189Z,2610.00
2018-06-29T13:21:35.340Z,2615.63
2018-06-29T13:22:43.438Z,2570.63
2018-06-29T13:23:51.565Z,2598.75
2018-06-29T13:24:59.746Z,2626.88
2018-06-29T13:26:07.811Z,2604.38
2018-06-29T13:27:15.909Z,2688.75
2018-06-29T13:28:24.078Z,2621.25
2018-06-29T13:29:32.132Z,2598.75
2018-06-29T13:30:40.230Z,2632.50
2018-06-29T13:31:48.332Z,2638.13
2018-06-29T13:32:56.412Z,2643.75
2018-06-29T13:34:04.482Z,2700.00
2018-06-29T13:35:12.543Z,2722.50
2018-06-29T13:36:20.611Z,2660.63
2018-06-29T13:37:28.645Z,2683.13
2018-06-29T13:38:36.688Z,2643.75
2018-06-29T13:39:44.727Z,2688.75
2018-06-29T13:40:52.780Z,2694.38
2018-06-29T13:42:00.806Z,2638.13
2018-06-29T13:43:08.827Z,2677.50
2018-06-29T13:44:16.841Z,2604.38
2018-06-29T13:45:24.860Z,2536.88
2018-06-29T13:46:32.899Z,2587.50
2018-06-29T13:47:40.928Z,2610.00
2018-06-29T13:48:48.950Z,2711.25
2018-06-29T13:49:57.994Z,2812.50
2018-06-29T13:51:05.056Z,2705.63
2018-06-29T13:52:13.109Z,2728.13
2018-06-29T13:53:21.170Z,2790.00
2018-06-29T13:54:29.219Z,2728.13
2018-06-29T13:55:37.275Z,2716.88
2018-06-29T13:56:45.311Z,2868.75
2018-06-29T13:57:53.322Z,2812.50
2018-06-29T13:59:01.411Z,2868.75
2018-06-29T14:00:09.353Z,2913.75
2018-06-29T14:01:17.376Z,2874.38
2018-06-29T14:02:25.431Z,3026.25
2018-06-29T14:03:33.417Z,3060.00
2018-06-29T14:04:41.428Z,3060.00